sensor_id;sensor_type;location;lat;lon;timestamp;P1;durP1;ratioP1;P2;durP2;ratioP2
61391;SDS011;47261;52.892;5.738;2022-12-05T00:00:14;30.80;;;10.80;;
61391;SDS011;47261;52.892;5.738;2022-12-05T00:02:40;26.65;;;10.30;;
61391;SDS011;47261;52.892;5.738;2022-12-05T00:05:06;25.03;;;9.37;;
61391;SDS011;47261;52.892;5.738;2022-12-05T00:07:34;27.17;;;10.20;;
61391;SDS011;47261;52.892;5.738;2022-12-05T00:10:00;24.23;;;10.27;;
61391;SDS011;47261;52.892;5.738;2022-12-05T00:12:25;27.97;;;10.43;;
61391;SDS011;47261;52.892;5.738;2022-12-05T00:14:51;25.83;;;10.63;;
61391;SDS011;47261;52.892;5.738;2022-12-05T00:17:17;26.50;;;9.77;;
61391;SDS011;47261;52.892;5.738;2022-12-05T00:19:42;26.47;;;10.17;;
61391;SDS011;47261;52.892;5.738;2022-12-05T00:22:08;25.48;;;10.00;;
61391;SDS011;47261;52.892;5.738;2022-12-05T00:24:33;27.20;;;8.47;;
61391;SDS011;47261;52.892;5.738;2022-12-05T00:26:59;25.47;;;10.33;;
61391;SDS011;47261;52.892;5.738;2022-12-05T00:29:25;22.73;;;8.55;;
61391;SDS011;47261;52.892;5.738;2022-12-05T00:31:50;22.50;;;8.40;;
61391;SDS011;47261;52.892;5.738;2022-12-05T00:34:16;17.42;;;6.70;;
61391;SDS011;47261;52.892;5.738;2022-12-05T00:36:41;19.67;;;7.33;;
61391;SDS011;47261;52.892;5.738;2022-12-05T00:39:08;22.47;;;7.90;;
61391;SDS011;47261;52.892;5.738;2022-12-05T00:41:35;24.45;;;7.93;;
61391;SDS011;47261;52.892;5.738;2022-12-05T00:44:02;28.85;;;9.55;;
61391;SDS011;47261;52.892;5.738;2022-12-05T00:46:29;28.42;;;9.30;;
61391;SDS011;47261;52.892;5.738;2022-12-05T00:48:56;27.33;;;10.23;;
61391;SDS011;47261;52.892;5.738;2022-12-05T00:51:24;26.70;;;8.43;;
61391;SDS011;47261;52.892;5.738;2022-12-05T00:53:54;27.27;;;9.80;;
61391;SDS011;47261;52.892;5.738;2022-12-05T00:56:24;23.90;;;9.40;;
61391;SDS011;47261;52.892;5.738;2022-12-05T00:58:51;27.88;;;10.80;;
61391;SDS011;47261;52.892;5.738;2022-12-05T01:01:26;19.92;;;8.45;;
61391;SDS011;47261;52.892;5.738;2022-12-05T01:04:00;24.50;;;9.83;;
61391;SDS011;47261;52.892;5.738;2022-12-05T01:06:27;26.92;;;10.20;;
61391;SDS011;47261;52.892;5.738;2022-12-05T01:08:54;27.33;;;10.82;;
61391;SDS011;47261;52.892;5.738;2022-12-05T01:11:21;26.00;;;10.48;;
61391;SDS011;47261;52.892;5.738;2022-12-05T01:13:47;30.10;;;11.20;;
61391;SDS011;47261;52.892;5.738;2022-12-05T01:16:18;27.70;;;9.57;;
61391;SDS011;47261;52.892;5.738;2022-12-05T01:18:47;30.33;;;10.32;;
61391;SDS011;47261;52.892;5.738;2022-12-05T01:21:13;26.90;;;10.05;;
61391;SDS011;47261;52.892;5.738;2022-12-05T01:23:38;30.23;;;11.37;;
61391;SDS011;47261;52.892;5.738;2022-12-05T01:26:06;28.00;;;10.07;;
61391;SDS011;47261;52.892;5.738;2022-12-05T01:28:33;29.08;;;10.65;;
61391;SDS011;47261;52.892;5.738;2022-12-05T01:31:03;29.77;;;11.65;;
61391;SDS011;47261;52.892;5.738;2022-12-05T01:33:31;25.20;;;8.73;;
61391;SDS011;47261;52.892;5.738;2022-12-05T01:35:57;33.05;;;12.07;;
61391;SDS011;47261;52.892;5.738;2022-12-05T01:38:22;26.00;;;9.88;;
61391;SDS011;47261;52.892;5.738;2022-12-05T01:40:48;29.83;;;10.77;;
61391;SDS011;47261;52.892;5.738;2022-12-05T01:43:15;27.57;;;10.53;;
61391;SDS011;47261;52.892;5.738;2022-12-05T01:45:43;33.17;;;11.60;;
61391;SDS011;47261;52.892;5.738;2022-12-05T01:48:11;28.95;;;11.20;;
61391;SDS011;47261;52.892;5.738;2022-12-05T01:50:43;25.10;;;10.20;;
61391;SDS011;47261;52.892;5.738;2022-12-05T01:53:10;27.17;;;10.27;;
61391;SDS011;47261;52.892;5.738;2022-12-05T01:55:36;26.03;;;10.20;;
61391;SDS011;47261;52.892;5.738;2022-12-05T01:58:03;27.38;;;10.50;;
61391;SDS011;47261;52.892;5.738;2022-12-05T02:00:30;30.88;;;11.10;;
61391;SDS011;47261;52.892;5.738;2022-12-05T02:03:04;28.25;;;11.45;;
61391;SDS011;47261;52.892;5.738;2022-12-05T02:05:33;28.52;;;10.57;;
61391;SDS011;47261;52.892;5.738;2022-12-05T02:08:00;31.98;;;12.23;;
61391;SDS011;47261;52.892;5.738;2022-12-05T02:10:29;27.73;;;10.73;;
61391;SDS011;47261;52.892;5.738;2022-12-05T02:13:00;31.17;;;11.70;;
61391;SDS011;47261;52.892;5.738;2022-12-05T02:30:43;32.50;;;11.18;;
61391;SDS011;47261;52.892;5.738;2022-12-05T02:36:04;33.58;;;13.05;;
61391;SDS011;47261;52.892;5.738;2022-12-05T02:38:38;31.77;;;12.00;;
61391;SDS011;47261;52.892;5.738;2022-12-05T02:41:26;27.85;;;11.10;;
61391;SDS011;47261;52.892;5.738;2022-12-05T02:44:58;32.95;;;12.02;;
61391;SDS011;47261;52.892;5.738;2022-12-05T02:47:20;32.90;;;11.83;;
61391;SDS011;47261;52.892;5.738;2022-12-05T02:49:49;31.30;;;12.50;;
61391;SDS011;47261;52.892;5.738;2022-12-05T02:52:17;29.80;;;10.77;;
61391;SDS011;47261;52.892;5.738;2022-12-05T02:54:43;30.92;;;12.07;;
61391;SDS011;47261;52.892;5.738;2022-12-05T02:57:11;34.58;;;12.70;;
61391;SDS011;47261;52.892;5.738;2022-12-05T02:59:39;30.70;;;11.65;;
61391;SDS011;47261;52.892;5.738;2022-12-05T03:02:04;29.67;;;10.90;;
61391;SDS011;47261;52.892;5.738;2022-12-05T03:04:33;43.65;;;12.30;;
61391;SDS011;47261;52.892;5.738;2022-12-05T03:07:00;30.97;;;11.53;;
61391;SDS011;47261;52.892;5.738;2022-12-05T03:09:34;34.70;;;13.45;;
61391;SDS011;47261;52.892;5.738;2022-12-05T03:14:42;31.05;;;11.45;;
61391;SDS011;47261;52.892;5.738;2022-12-05T03:17:30;27.35;;;11.15;;
61391;SDS011;47261;52.892;5.738;2022-12-05T03:20:03;35.80;;;12.63;;
61391;SDS011;47261;52.892;5.738;2022-12-05T03:25:01;28.88;;;11.80;;
61391;SDS011;47261;52.892;5.738;2022-12-05T03:30:09;29.65;;;11.63;;
61391;SDS011;47261;52.892;5.738;2022-12-05T03:41:08;28.60;;;10.25;;
61391;SDS011;47261;52.892;5.738;2022-12-05T03:46:36;25.93;;;10.77;;
61391;SDS011;47261;52.892;5.738;2022-12-05T03:49:22;24.77;;;9.60;;
61391;SDS011;47261;52.892;5.738;2022-12-05T03:51:58;23.80;;;9.30;;
61391;SDS011;47261;52.892;5.738;2022-12-05T03:54:31;19.40;;;8.10;;
61391;SDS011;47261;52.892;5.738;2022-12-05T03:57:02;17.15;;;6.32;;
61391;SDS011;47261;52.892;5.738;2022-12-05T03:59:36;15.80;;;7.00;;
61391;SDS011;47261;52.892;5.738;2022-12-05T04:02:07;18.35;;;7.43;;
61391;SDS011;47261;52.892;5.738;2022-12-05T04:04:39;16.83;;;7.10;;
61391;SDS011;47261;52.892;5.738;2022-12-05T04:07:18;19.50;;;7.75;;
61391;SDS011;47261;52.892;5.738;2022-12-05T04:09:49;14.63;;;5.70;;
61391;SDS011;47261;52.892;5.738;2022-12-05T04:12:21;14.07;;;6.57;;
61391;SDS011;47261;52.892;5.738;2022-12-05T04:14:49;13.45;;;5.55;;
61391;SDS011;47261;52.892;5.738;2022-12-05T04:17:25;13.30;;;5.88;;
61391;SDS011;47261;52.892;5.738;2022-12-05T04:19:59;14.43;;;6.88;;
61391;SDS011;47261;52.892;5.738;2022-12-05T04:22:47;16.80;;;6.28;;
61391;SDS011;47261;52.892;5.738;2022-12-05T04:25:14;14.43;;;5.90;;
61391;SDS011;47261;52.892;5.738;2022-12-05T04:28:04;13.43;;;5.72;;
61391;SDS011;47261;52.892;5.738;2022-12-05T04:30:39;13.90;;;5.50;;
61391;SDS011;47261;52.892;5.738;2022-12-05T04:35:40;13.77;;;5.88;;
61391;SDS011;47261;52.892;5.738;2022-12-05T04:38:14;16.67;;;6.47;;
61391;SDS011;47261;52.892;5.738;2022-12-05T04:41:01;14.98;;;5.70;;
61391;SDS011;47261;52.892;5.738;2022-12-05T04:43:29;13.57;;;6.15;;
61391;SDS011;47261;52.892;5.738;2022-12-05T04:45:59;12.90;;;5.20;;
61391;SDS011;47261;52.892;5.738;2022-12-05T04:48:27;15.35;;;5.82;;
61391;SDS011;47261;52.892;5.738;2022-12-05T04:50:54;13.03;;;4.83;;
61391;SDS011;47261;52.892;5.738;2022-12-05T04:53:23;11.57;;;5.57;;
61391;SDS011;47261;52.892;5.738;2022-12-05T04:55:51;12.55;;;4.32;;
61391;SDS011;47261;52.892;5.738;2022-12-05T04:58:23;13.50;;;5.15;;
61391;SDS011;47261;52.892;5.738;2022-12-05T05:00:56;13.02;;;5.78;;
61391;SDS011;47261;52.892;5.738;2022-12-05T05:03:48;13.40;;;5.33;;
61391;SDS011;47261;52.892;5.738;2022-12-05T05:06:18;11.45;;;4.57;;
61391;SDS011;47261;52.892;5.738;2022-12-05T05:08:51;11.77;;;4.50;;
61391;SDS011;47261;52.892;5.738;2022-12-05T05:11:22;15.53;;;4.97;;
61391;SDS011;47261;52.892;5.738;2022-12-05T05:13:51;13.52;;;5.35;;
61391;SDS011;47261;52.892;5.738;2022-12-05T05:16:18;11.48;;;4.82;;
61391;SDS011;47261;52.892;5.738;2022-12-05T05:18:46;13.98;;;4.88;;
61391;SDS011;47261;52.892;5.738;2022-12-05T05:21:14;11.10;;;4.95;;
61391;SDS011;47261;52.892;5.738;2022-12-05T05:23:47;10.13;;;4.13;;
61391;SDS011;47261;52.892;5.738;2022-12-05T05:26:13;11.77;;;4.88;;
61391;SDS011;47261;52.892;5.738;2022-12-05T05:28:39;11.43;;;4.20;;
61391;SDS011;47261;52.892;5.738;2022-12-05T05:31:05;12.50;;;4.30;;
61391;SDS011;47261;52.892;5.738;2022-12-05T05:33:31;10.00;;;4.00;;
61391;SDS011;47261;52.892;5.738;2022-12-05T05:36:16;10.50;;;4.25;;
61391;SDS011;47261;52.892;5.738;2022-12-05T05:38:43;9.73;;;4.25;;
61391;SDS011;47261;52.892;5.738;2022-12-05T05:41:20;11.43;;;3.87;;
61391;SDS011;47261;52.892;5.738;2022-12-05T05:43:48;12.20;;;4.97;;
61391;SDS011;47261;52.892;5.738;2022-12-05T05:46:15;10.63;;;4.45;;
61391;SDS011;47261;52.892;5.738;2022-12-05T05:48:42;13.52;;;4.40;;
61391;SDS011;47261;52.892;5.738;2022-12-05T05:51:09;14.00;;;4.93;;
61391;SDS011;47261;52.892;5.738;2022-12-05T05:53:35;13.40;;;4.70;;
61391;SDS011;47261;52.892;5.738;2022-12-05T05:56:05;12.25;;;5.70;;
61391;SDS011;47261;52.892;5.738;2022-12-05T05:58:32;10.00;;;4.07;;
61391;SDS011;47261;52.892;5.738;2022-12-05T06:01:08;11.70;;;4.68;;
61391;SDS011;47261;52.892;5.738;2022-12-05T06:03:35;14.32;;;5.40;;
61391;SDS011;47261;52.892;5.738;2022-12-05T06:06:03;11.95;;;5.18;;
61391;SDS011;47261;52.892;5.738;2022-12-05T06:08:36;14.77;;;5.47;;
61391;SDS011;47261;52.892;5.738;2022-12-05T06:11:06;13.50;;;4.83;;
61391;SDS011;47261;52.892;5.738;2022-12-05T06:13:36;11.73;;;4.07;;
61391;SDS011;47261;52.892;5.738;2022-12-05T06:16:06;17.40;;;5.32;;
61391;SDS011;47261;52.892;5.738;2022-12-05T06:18:33;12.45;;;5.38;;
61391;SDS011;47261;52.892;5.738;2022-12-05T06:20:59;12.33;;;4.83;;
61391;SDS011;47261;52.892;5.738;2022-12-05T06:23:25;13.43;;;4.93;;
61391;SDS011;47261;52.892;5.738;2022-12-05T06:25:52;13.98;;;4.82;;
61391;SDS011;47261;52.892;5.738;2022-12-05T06:28:20;11.65;;;4.68;;
61391;SDS011;47261;52.892;5.738;2022-12-05T06:30:47;11.13;;;4.50;;
61391;SDS011;47261;52.892;5.738;2022-12-05T06:33:12;15.23;;;5.27;;
61391;SDS011;47261;52.892;5.738;2022-12-05T06:35:38;11.80;;;4.43;;
61391;SDS011;47261;52.892;5.738;2022-12-05T06:38:04;13.17;;;4.47;;
61391;SDS011;47261;52.892;5.738;2022-12-05T06:40:30;12.82;;;5.13;;
61391;SDS011;47261;52.892;5.738;2022-12-05T06:42:56;13.10;;;5.90;;
61391;SDS011;47261;52.892;5.738;2022-12-05T06:45:21;11.93;;;3.90;;
61391;SDS011;47261;52.892;5.738;2022-12-05T06:47:47;11.47;;;4.97;;
61391;SDS011;47261;52.892;5.738;2022-12-05T06:50:14;15.07;;;5.22;;
61391;SDS011;47261;52.892;5.738;2022-12-05T06:52:40;12.27;;;5.00;;
61391;SDS011;47261;52.892;5.738;2022-12-05T06:55:05;11.05;;;4.50;;
61391;SDS011;47261;52.892;5.738;2022-12-05T06:57:31;9.83;;;3.80;;
61391;SDS011;47261;52.892;5.738;2022-12-05T06:59:57;10.30;;;3.90;;
61391;SDS011;47261;52.892;5.738;2022-12-05T07:02:45;11.33;;;4.53;;
61391;SDS011;47261;52.892;5.738;2022-12-05T07:05:13;10.70;;;4.20;;
61391;SDS011;47261;52.892;5.738;2022-12-05T07:07:39;9.48;;;3.85;;
61391;SDS011;47261;52.892;5.738;2022-12-05T07:10:05;11.70;;;4.63;;
61391;SDS011;47261;52.892;5.738;2022-12-05T07:12:32;11.15;;;4.10;;
61391;SDS011;47261;52.892;5.738;2022-12-05T07:14:58;10.67;;;4.07;;
61391;SDS011;47261;52.892;5.738;2022-12-05T07:17:23;12.50;;;4.40;;
61391;SDS011;47261;52.892;5.738;2022-12-05T07:19:49;13.48;;;4.43;;
61391;SDS011;47261;52.892;5.738;2022-12-05T07:22:17;12.95;;;4.60;;
61391;SDS011;47261;52.892;5.738;2022-12-05T07:24:44;10.80;;;3.73;;
61391;SDS011;47261;52.892;5.738;2022-12-05T07:27:10;9.35;;;3.42;;
61391;SDS011;47261;52.892;5.738;2022-12-05T07:29:36;11.45;;;4.72;;
61391;SDS011;47261;52.892;5.738;2022-12-05T07:32:01;19.63;;;5.03;;
61391;SDS011;47261;52.892;5.738;2022-12-05T07:34:27;16.33;;;4.65;;
61391;SDS011;47261;52.892;5.738;2022-12-05T07:36:53;9.15;;;3.75;;
61391;SDS011;47261;52.892;5.738;2022-12-05T07:39:19;10.77;;;3.90;;
61391;SDS011;47261;52.892;5.738;2022-12-05T07:41:44;11.67;;;4.17;;
61391;SDS011;47261;52.892;5.738;2022-12-05T07:44:10;10.85;;;3.90;;
61391;SDS011;47261;52.892;5.738;2022-12-05T07:46:36;13.27;;;4.40;;
61391;SDS011;47261;52.892;5.738;2022-12-05T07:49:02;13.03;;;5.03;;
61391;SDS011;47261;52.892;5.738;2022-12-05T07:51:28;12.43;;;5.60;;
61391;SDS011;47261;52.892;5.738;2022-12-05T07:53:54;13.77;;;4.85;;
61391;SDS011;47261;52.892;5.738;2022-12-05T07:56:20;14.03;;;4.63;;
61391;SDS011;47261;52.892;5.738;2022-12-05T07:58:46;15.73;;;4.70;;
61391;SDS011;47261;52.892;5.738;2022-12-05T08:01:14;13.30;;;5.20;;
61391;SDS011;47261;52.892;5.738;2022-12-05T08:03:42;15.37;;;4.67;;
61391;SDS011;47261;52.892;5.738;2022-12-05T08:06:09;13.18;;;4.65;;
61391;SDS011;47261;52.892;5.738;2022-12-05T08:08:37;11.95;;;4.63;;
61391;SDS011;47261;52.892;5.738;2022-12-05T08:11:03;15.52;;;5.07;;
61391;SDS011;47261;52.892;5.738;2022-12-05T08:13:30;12.35;;;4.30;;
61391;SDS011;47261;52.892;5.738;2022-12-05T08:15:59;10.47;;;3.70;;
61391;SDS011;47261;52.892;5.738;2022-12-05T08:18:29;11.88;;;3.97;;
61391;SDS011;47261;52.892;5.738;2022-12-05T08:20:55;11.95;;;4.72;;
61391;SDS011;47261;52.892;5.738;2022-12-05T08:23:26;13.85;;;4.75;;
61391;SDS011;47261;52.892;5.738;2022-12-05T08:25:53;17.00;;;4.57;;
61391;SDS011;47261;52.892;5.738;2022-12-05T08:28:18;11.77;;;5.07;;
61391;SDS011;47261;52.892;5.738;2022-12-05T08:30:44;14.00;;;4.93;;
61391;SDS011;47261;52.892;5.738;2022-12-05T08:33:10;12.30;;;5.18;;
61391;SDS011;47261;52.892;5.738;2022-12-05T08:35:36;17.33;;;5.73;;
61391;SDS011;47261;52.892;5.738;2022-12-05T08:38:01;15.50;;;5.35;;
61391;SDS011;47261;52.892;5.738;2022-12-05T08:40:27;17.88;;;5.40;;
61391;SDS011;47261;52.892;5.738;2022-12-05T08:42:53;13.63;;;5.77;;
61391;SDS011;47261;52.892;5.738;2022-12-05T08:45:18;15.80;;;5.87;;
61391;SDS011;47261;52.892;5.738;2022-12-05T08:47:44;23.05;;;6.05;;
61391;SDS011;47261;52.892;5.738;2022-12-05T08:50:09;16.23;;;6.10;;
61391;SDS011;47261;52.892;5.738;2022-12-05T08:52:35;17.13;;;6.07;;
61391;SDS011;47261;52.892;5.738;2022-12-05T08:55:01;17.08;;;6.65;;
61391;SDS011;47261;52.892;5.738;2022-12-05T08:57:26;16.40;;;5.73;;
61391;SDS011;47261;52.892;5.738;2022-12-05T08:59:52;16.52;;;5.50;;
61391;SDS011;47261;52.892;5.738;2022-12-05T09:02:17;22.27;;;7.03;;
61391;SDS011;47261;52.892;5.738;2022-12-05T09:04:43;22.00;;;6.20;;
61391;SDS011;47261;52.892;5.738;2022-12-05T09:07:09;16.30;;;5.47;;
61391;SDS011;47261;52.892;5.738;2022-12-05T09:09:34;17.57;;;5.53;;
61391;SDS011;47261;52.892;5.738;2022-12-05T09:12:00;16.65;;;4.93;;
61391;SDS011;47261;52.892;5.738;2022-12-05T09:14:26;16.37;;;5.17;;
61391;SDS011;47261;52.892;5.738;2022-12-05T09:16:57;14.75;;;5.40;;
61391;SDS011;47261;52.892;5.738;2022-12-05T09:19:23;13.48;;;5.07;;
61391;SDS011;47261;52.892;5.738;2022-12-05T09:21:51;17.10;;;5.43;;
61391;SDS011;47261;52.892;5.738;2022-12-05T09:24:17;16.75;;;5.03;;
61391;SDS011;47261;52.892;5.738;2022-12-05T09:26:43;16.13;;;5.20;;
61391;SDS011;47261;52.892;5.738;2022-12-05T09:29:11;14.90;;;4.63;;
61391;SDS011;47261;52.892;5.738;2022-12-05T09:31:37;12.37;;;3.87;;
61391;SDS011;47261;52.892;5.738;2022-12-05T09:34:03;12.82;;;4.55;;
61391;SDS011;47261;52.892;5.738;2022-12-05T09:36:29;14.90;;;4.30;;
61391;SDS011;47261;52.892;5.738;2022-12-05T09:39:00;15.80;;;5.03;;
61391;SDS011;47261;52.892;5.738;2022-12-05T09:49:54;12.98;;;4.80;;
61391;SDS011;47261;52.892;5.738;2022-12-05T09:52:26;12.77;;;3.43;;
61391;SDS011;47261;52.892;5.738;2022-12-05T09:54:54;15.32;;;4.95;;
61391;SDS011;47261;52.892;5.738;2022-12-05T09:57:23;17.38;;;5.53;;
61391;SDS011;47261;52.892;5.738;2022-12-05T09:59:56;16.80;;;4.93;;
61391;SDS011;47261;52.892;5.738;2022-12-05T10:05:12;17.63;;;4.70;;
61391;SDS011;47261;52.892;5.738;2022-12-05T10:07:46;19.25;;;5.28;;
61391;SDS011;47261;52.892;5.738;2022-12-05T10:13:26;15.70;;;4.80;;
61391;SDS011;47261;52.892;5.738;2022-12-05T10:16:02;16.83;;;5.05;;
61391;SDS011;47261;52.892;5.738;2022-12-05T10:18:42;16.07;;;3.67;;
61391;SDS011;47261;52.892;5.738;2022-12-05T10:21:32;16.48;;;4.43;;
61391;SDS011;47261;52.892;5.738;2022-12-05T10:24:11;18.52;;;5.20;;
61391;SDS011;47261;52.892;5.738;2022-12-05T10:26:55;13.63;;;5.00;;
61391;SDS011;47261;52.892;5.738;2022-12-05T10:29:27;16.88;;;4.47;;
61391;SDS011;47261;52.892;5.738;2022-12-05T10:32:01;14.47;;;4.07;;
61391;SDS011;47261;52.892;5.738;2022-12-05T10:34:38;13.65;;;4.97;;
61391;SDS011;47261;52.892;5.738;2022-12-05T10:37:15;15.93;;;5.72;;
61391;SDS011;47261;52.892;5.738;2022-12-05T10:39:43;19.67;;;5.55;;
61391;SDS011;47261;52.892;5.738;2022-12-05T10:42:24;14.15;;;4.93;;
61391;SDS011;47261;52.892;5.738;2022-12-05T10:44:56;18.20;;;5.60;;
61391;SDS011;47261;52.892;5.738;2022-12-05T10:47:23;18.15;;;5.60;;
61391;SDS011;47261;52.892;5.738;2022-12-05T10:49:49;13.95;;;6.22;;
61391;SDS011;47261;52.892;5.738;2022-12-05T10:52:16;15.15;;;5.28;;
61391;SDS011;47261;52.892;5.738;2022-12-05T10:54:43;19.17;;;5.90;;
61391;SDS011;47261;52.892;5.738;2022-12-05T10:57:25;18.10;;;5.60;;
61391;SDS011;47261;52.892;5.738;2022-12-05T10:59:52;17.00;;;5.85;;
61391;SDS011;47261;52.892;5.738;2022-12-05T11:02:25;17.65;;;5.57;;
61391;SDS011;47261;52.892;5.738;2022-12-05T11:04:53;13.27;;;5.10;;
61391;SDS011;47261;52.892;5.738;2022-12-05T11:12:45;15.25;;;5.45;;
61391;SDS011;47261;52.892;5.738;2022-12-05T11:17:40;16.53;;;5.90;;
61391;SDS011;47261;52.892;5.738;2022-12-05T11:22:45;19.45;;;6.13;;
61391;SDS011;47261;52.892;5.738;2022-12-05T11:27:56;17.42;;;5.07;;
61391;SDS011;47261;52.892;5.738;2022-12-05T11:30:25;21.47;;;6.70;;
61391;SDS011;47261;52.892;5.738;2022-12-05T11:33:26;23.10;;;5.90;;
61391;SDS011;47261;52.892;5.738;2022-12-05T11:35:46;16.02;;;4.85;;
61391;SDS011;47261;52.892;5.738;2022-12-05T11:38:13;23.52;;;6.65;;
61391;SDS011;47261;52.892;5.738;2022-12-05T11:46:09;19.65;;;6.55;;
61391;SDS011;47261;52.892;5.738;2022-12-05T11:55:11;17.75;;;5.03;;
61391;SDS011;47261;52.892;5.738;2022-12-05T12:00:42;18.37;;;6.00;;
61391;SDS011;47261;52.892;5.738;2022-12-05T12:16:46;18.55;;;5.63;;
61391;SDS011;47261;52.892;5.738;2022-12-05T12:19:38;22.05;;;6.70;;
61391;SDS011;47261;52.892;5.738;2022-12-05T12:25:22;15.90;;;5.03;;
61391;SDS011;47261;52.892;5.738;2022-12-05T12:36:31;17.17;;;5.03;;
61391;SDS011;47261;52.892;5.738;2022-12-05T12:39:17;15.03;;;4.40;;
61391;SDS011;47261;52.892;5.738;2022-12-05T12:50:21;10.73;;;3.60;;
61391;SDS011;47261;52.892;5.738;2022-12-05T12:55:22;14.50;;;4.57;;
61391;SDS011;47261;52.892;5.738;2022-12-05T12:58:00;15.50;;;4.63;;
61391;SDS011;47261;52.892;5.738;2022-12-05T13:00:54;9.68;;;3.22;;
61391;SDS011;47261;52.892;5.738;2022-12-05T13:03:46;14.70;;;4.50;;
61391;SDS011;47261;52.892;5.738;2022-12-05T13:11:50;15.88;;;3.95;;
61391;SDS011;47261;52.892;5.738;2022-12-05T13:14:20;11.70;;;3.55;;
61391;SDS011;47261;52.892;5.738;2022-12-05T13:16:50;12.52;;;3.92;;
61391;SDS011;47261;52.892;5.738;2022-12-05T13:19:28;16.60;;;4.87;;
61391;SDS011;47261;52.892;5.738;2022-12-05T13:22:02;19.27;;;5.38;;
61391;SDS011;47261;52.892;5.738;2022-12-05T13:24:29;11.77;;;4.47;;
61391;SDS011;47261;52.892;5.738;2022-12-05T13:26:57;13.27;;;4.68;;
61391;SDS011;47261;52.892;5.738;2022-12-05T13:29:27;14.93;;;4.13;;
61391;SDS011;47261;52.892;5.738;2022-12-05T13:31:56;10.83;;;3.10;;
61391;SDS011;47261;52.892;5.738;2022-12-05T13:34:43;14.30;;;4.45;;
61391;SDS011;47261;52.892;5.738;2022-12-05T13:37:30;9.95;;;3.45;;
61391;SDS011;47261;52.892;5.738;2022-12-05T13:40:23;13.52;;;3.63;;
61391;SDS011;47261;52.892;5.738;2022-12-05T13:43:10;10.88;;;2.42;;
61391;SDS011;47261;52.892;5.738;2022-12-05T13:45:39;11.13;;;2.93;;
61391;SDS011;47261;52.892;5.738;2022-12-05T13:48:10;11.13;;;2.58;;
61391;SDS011;47261;52.892;5.738;2022-12-05T13:50:53;13.13;;;2.83;;
61391;SDS011;47261;52.892;5.738;2022-12-05T13:53:38;16.42;;;4.07;;
61391;SDS011;47261;52.892;5.738;2022-12-05T14:09:09;6.13;;;1.95;;
61391;SDS011;47261;52.892;5.738;2022-12-05T14:17:22;6.27;;;1.70;;
61391;SDS011;47261;52.892;5.738;2022-12-05T14:19:56;5.07;;;1.42;;
61391;SDS011;47261;52.892;5.738;2022-12-05T14:22:57;4.32;;;1.23;;
61391;SDS011;47261;52.892;5.738;2022-12-05T14:25:22;4.25;;;1.13;;
61391;SDS011;47261;52.892;5.738;2022-12-05T14:27:55;6.40;;;1.33;;
61391;SDS011;47261;52.892;5.738;2022-12-05T14:33:32;4.25;;;1.25;;
61391;SDS011;47261;52.892;5.738;2022-12-05T14:36:03;6.50;;;1.55;;
61391;SDS011;47261;52.892;5.738;2022-12-05T14:38:32;8.25;;;1.52;;
61391;SDS011;47261;52.892;5.738;2022-12-05T14:41:14;7.80;;;1.70;;
61391;SDS011;47261;52.892;5.738;2022-12-05T14:43:50;7.05;;;1.58;;
61391;SDS011;47261;52.892;5.738;2022-12-05T14:46:24;6.22;;;1.63;;
61391;SDS011;47261;52.892;5.738;2022-12-05T14:48:56;5.82;;;1.63;;
61391;SDS011;47261;52.892;5.738;2022-12-05T14:51:43;7.80;;;1.60;;
61391;SDS011;47261;52.892;5.738;2022-12-05T14:56:40;9.52;;;1.75;;
61391;SDS011;47261;52.892;5.738;2022-12-05T15:01:55;5.07;;;1.38;;
61391;SDS011;47261;52.892;5.738;2022-12-05T15:04:45;4.97;;;1.20;;
61391;SDS011;47261;52.892;5.738;2022-12-05T15:07:18;3.80;;;1.10;;
61391;SDS011;47261;52.892;5.738;2022-12-05T15:18:07;5.78;;;1.40;;
61391;SDS011;47261;52.892;5.738;2022-12-05T15:34:47;8.17;;;1.77;;
61391;SDS011;47261;52.892;5.738;2022-12-05T15:40:11;6.65;;;1.88;;
61391;SDS011;47261;52.892;5.738;2022-12-05T15:42:51;7.85;;;1.60;;
61391;SDS011;47261;52.892;5.738;2022-12-05T15:50:31;5.93;;;1.42;;
61391;SDS011;47261;52.892;5.738;2022-12-05T15:53:14;6.13;;;2.10;;
61391;SDS011;47261;52.892;5.738;2022-12-05T16:06:42;4.90;;;1.35;;
61391;SDS011;47261;52.892;5.738;2022-12-05T16:09:14;5.03;;;1.63;;
61391;SDS011;47261;52.892;5.738;2022-12-05T16:12:43;6.38;;;1.38;;
61391;SDS011;47261;52.892;5.738;2022-12-05T16:14:48;8.67;;;1.60;;
61391;SDS011;47261;52.892;5.738;2022-12-05T16:17:16;5.40;;;1.27;;
61391;SDS011;47261;52.892;5.738;2022-12-05T16:19:44;4.03;;;1.20;;
61391;SDS011;47261;52.892;5.738;2022-12-05T16:24:46;7.00;;;1.80;;
61391;SDS011;47261;52.892;5.738;2022-12-05T16:27:21;5.95;;;1.83;;
61391;SDS011;47261;52.892;5.738;2022-12-05T16:32:46;8.95;;;2.03;;
61391;SDS011;47261;52.892;5.738;2022-12-05T16:38:16;5.40;;;1.70;;
61391;SDS011;47261;52.892;5.738;2022-12-05T16:48:41;6.47;;;1.70;;
61391;SDS011;47261;52.892;5.738;2022-12-05T16:53:37;5.35;;;1.95;;
61391;SDS011;47261;52.892;5.738;2022-12-05T16:56:04;10.63;;;2.20;;
61391;SDS011;47261;52.892;5.738;2022-12-05T16:58:35;7.97;;;2.03;;
61391;SDS011;47261;52.892;5.738;2022-12-05T17:01:01;5.80;;;2.10;;
61391;SDS011;47261;52.892;5.738;2022-12-05T17:03:29;7.90;;;2.58;;
61391;SDS011;47261;52.892;5.738;2022-12-05T17:05:55;8.70;;;2.65;;
61391;SDS011;47261;52.892;5.738;2022-12-05T17:08:21;7.43;;;2.37;;
61391;SDS011;47261;52.892;5.738;2022-12-05T17:10:47;5.55;;;2.05;;
61391;SDS011;47261;52.892;5.738;2022-12-05T17:13:14;7.72;;;2.65;;
61391;SDS011;47261;52.892;5.738;2022-12-05T17:15:41;9.95;;;3.03;;
61391;SDS011;47261;52.892;5.738;2022-12-05T17:18:11;10.17;;;3.23;;
61391;SDS011;47261;52.892;5.738;2022-12-05T17:20:39;8.80;;;2.95;;
61391;SDS011;47261;52.892;5.738;2022-12-05T17:23:09;10.43;;;2.67;;
61391;SDS011;47261;52.892;5.738;2022-12-05T17:25:40;13.85;;;3.47;;
61391;SDS011;47261;52.892;5.738;2022-12-05T17:28:17;12.18;;;2.83;;
61391;SDS011;47261;52.892;5.738;2022-12-05T17:30:43;11.30;;;2.87;;
61391;SDS011;47261;52.892;5.738;2022-12-05T17:33:08;14.35;;;3.67;;
61391;SDS011;47261;52.892;5.738;2022-12-05T17:35:36;12.80;;;3.63;;
61391;SDS011;47261;52.892;5.738;2022-12-05T17:38:03;12.18;;;2.88;;
61391;SDS011;47261;52.892;5.738;2022-12-05T17:40:29;16.50;;;4.28;;
61391;SDS011;47261;52.892;5.738;2022-12-05T17:42:55;10.60;;;2.65;;
61391;SDS011;47261;52.892;5.738;2022-12-05T17:45:21;6.82;;;2.58;;
61391;SDS011;47261;52.892;5.738;2022-12-05T17:47:47;9.07;;;3.23;;
61391;SDS011;47261;52.892;5.738;2022-12-05T17:50:17;16.63;;;3.90;;
61391;SDS011;47261;52.892;5.738;2022-12-05T17:52:45;14.88;;;3.90;;
61391;SDS011;47261;52.892;5.738;2022-12-05T17:55:32;9.27;;;3.33;;
61391;SDS011;47261;52.892;5.738;2022-12-05T17:57:56;14.50;;;2.67;;
61391;SDS011;47261;52.892;5.738;2022-12-05T18:00:22;16.20;;;3.70;;
61391;SDS011;47261;52.892;5.738;2022-12-05T18:02:48;16.63;;;3.70;;
61391;SDS011;47261;52.892;5.738;2022-12-05T18:05:15;13.73;;;4.20;;
61391;SDS011;47261;52.892;5.738;2022-12-05T18:07:42;16.00;;;3.90;;
61391;SDS011;47261;52.892;5.738;2022-12-05T18:10:10;13.85;;;2.72;;
61391;SDS011;47261;52.892;5.738;2022-12-05T18:12:38;12.25;;;3.67;;
61391;SDS011;47261;52.892;5.738;2022-12-05T18:15:04;12.52;;;3.33;;
61391;SDS011;47261;52.892;5.738;2022-12-05T18:17:30;11.07;;;2.97;;
61391;SDS011;47261;52.892;5.738;2022-12-05T18:19:56;13.45;;;3.03;;
61391;SDS011;47261;52.892;5.738;2022-12-05T18:22:22;13.55;;;3.13;;